Saint Louis, Missouri
Traffic Map
Current Weather Conditions
Saint Louis, Missouri
Clear
Clear
85°
Feels Like: 87°
Wind Chill: 85° Ceiling: Unl
Heat Index: 87° Visibility: 10mi
Dew Point: 66° Wind: 16mph
Humidity: 53% Direction: 20° (NNE)
Pressure: 30.03in Gusts: 23mph
Raw Report DataKCPS 232153Z 02014G20KT 10SM CLR 29/19 A3003 RMK AO2 SLP165 T02940189
Traffic Incident Summary
Active as of:
Severity:
Category:
InformationThere was an issue retrieving the traffic information for this location. Please try a different location or try again shortly.
Advertisements
Track Severe Weather on mobile